createdAt,value
2022-08-07T00:00:40.158Z,100614.72
2022-08-07T00:10:47.868Z,100619.75
2022-08-07T00:20:53.628Z,100624.53
2022-08-07T00:30:57.334Z,100624.91
2022-08-07T00:41:02.707Z,100618.56
2022-08-07T00:51:05.980Z,100630.31
2022-08-07T01:01:10.975Z,100624.50
2022-08-07T01:12:23.866Z,100622.94
2022-08-07T01:21:39.577Z,100615.22
2022-08-07T01:31:48.275Z,100619.78
2022-08-07T01:42:01.434Z,100612.34
2022-08-07T01:52:16.781Z,100610.94
2022-08-07T02:02:32.529Z,100616.69
2022-08-07T02:12:50.254Z,100618.78
2022-08-07T02:22:59.731Z,100612.34
2022-08-07T02:33:09.535Z,100621.38
2022-08-07T02:43:16.060Z,100631.09
2022-08-07T02:53:27.393Z,100634.34
2022-08-07T03:03:49.447Z,100640.94
2022-08-07T03:13:57.517Z,100638.41
2022-08-07T03:24:18.917Z,100647.88
2022-08-07T03:34:27.371Z,100650.91
2022-08-07T03:44:34.422Z,100660.16
2022-08-07T03:54:54.314Z,100662.72
2022-08-07T04:04:59.376Z,100674.25
2022-08-07T04:15:02.644Z,100694.81
2022-08-07T04:25:12.552Z,100697.63
2022-08-07T04:35:16.168Z,100702.19
2022-08-07T04:45:57.763Z,100706.97
2022-08-07T04:58:11.156Z,100717.06
2022-08-07T05:06:19.677Z,100734.06
2022-08-07T05:16:24.321Z,100730.72
2022-08-07T05:26:30.330Z,100745.16
2022-08-07T05:36:35.696Z,100745.25
2022-08-07T05:46:42.867Z,100750.50
2022-08-07T05:56:48.511Z,100764.47
2022-08-07T06:06:56.426Z,100775.19
2022-08-07T06:17:08.462Z,100768.50
2022-08-07T06:27:44.304Z,100766.47
2022-08-07T06:37:45.164Z,100780.34
2022-08-07T06:47:58.700Z,100782.09
2022-08-07T06:58:05.512Z,100786.97
2022-08-07T07:08:18.432Z,100784.78
2022-08-07T07:18:47.695Z,100783.47
2022-08-07T07:29:56.934Z,100781.34
2022-08-07T07:39:21.378Z,100793.78
2022-08-07T07:50:35.973Z,100790.00
2022-08-07T07:59:53.959Z,100790.59
2022-08-07T08:10:05.334Z,100798.47
2022-08-07T08:20:17.366Z,100788.75
2022-08-07T08:30:29.180Z,100794.97
2022-08-07T08:40:34.714Z,100792.28
2022-08-07T08:50:46.821Z,100771.47
2022-08-07T09:01:01.034Z,100782.72
2022-08-07T09:11:43.028Z,100770.22
2022-08-07T09:22:09.929Z,100763.97
2022-08-07T09:32:26.492Z,100763.53
2022-08-07T09:42:39.878Z,100757.41
2022-08-07T09:52:51.826Z,100754.09
2022-08-07T10:04:05.538Z,100741.84
2022-08-07T10:14:01.045Z,100740.94
2022-08-07T10:24:39.635Z,100727.50
2022-08-07T10:34:56.189Z,100716.84
2022-08-07T10:45:04.124Z,100711.28
2022-08-07T10:55:32.500Z,100702.59
2022-08-07T11:05:49.293Z,100694.06
2022-08-07T11:15:57.023Z,100685.34
2022-08-07T11:26:07.694Z,100668.50
2022-08-07T11:36:25.382Z,100670.13
2022-08-07T11:46:45.414Z,100663.84
2022-08-07T11:57:14.199Z,100654.00
2022-08-07T12:07:27.927Z,100637.50
2022-08-07T12:17:58.652Z,100632.69
2022-08-07T12:28:10.998Z,100627.25
2022-08-07T12:38:30.568Z,100614.72
2022-08-07T12:48:53.104Z,100605.38
2022-08-07T12:59:00.863Z,100603.06
2022-08-07T13:10:19.440Z,100588.31
2022-08-07T13:19:50.830Z,100586.84
2022-08-07T13:30:03.561Z,100578.44
2022-08-07T13:40:35.321Z,100575.03
2022-08-07T13:50:55.533Z,100562.09
2022-08-07T14:01:12.594Z,100545.31
2022-08-07T14:11:17.752Z,100536.25
2022-08-07T14:22:03.958Z,100523.31
2022-08-07T14:31:56.244Z,100516.78
2022-08-07T14:42:22.470Z,100514.53
2022-08-07T14:52:28.820Z,100511.97
2022-08-07T15:02:35.186Z,100497.25
2022-08-07T15:12:42.275Z,100494.50
2022-08-07T15:22:51.579Z,100482.78
2022-08-07T15:33:03.738Z,100480.91
2022-08-07T15:43:53.619Z,100475.00
2022-08-07T15:53:52.006Z,100462.94
2022-08-07T16:04:01.313Z,100459.91
2022-08-07T16:14:17.149Z,100465.31
2022-08-07T16:24:34.983Z,100454.81
2022-08-07T16:34:48.198Z,100457.84
2022-08-07T16:45:14.750Z,100475.28
2022-08-07T16:55:47.418Z,100466.88
2022-08-07T17:06:28.891Z,100463.22
2022-08-07T17:16:28.599Z,100471.44
2022-08-07T17:26:51.039Z,100475.72
2022-08-07T17:37:00.029Z,100475.69
2022-08-07T17:47:37.929Z,100477.19
2022-08-07T17:57:58.510Z,100483.25
2022-08-07T18:08:17.543Z,100500.41
2022-08-07T18:21:00.858Z,100514.78
2022-08-07T18:29:05.461Z,100532.59
2022-08-07T18:40:08.132Z,100537.19
2022-08-07T18:50:49.852Z,100546.59
2022-08-07T19:01:03.795Z,100559.78
2022-08-07T19:11:35.100Z,100564.66
2022-08-07T19:21:56.822Z,100569.78
2022-08-07T19:32:28.786Z,100574.84
2022-08-07T19:42:30.423Z,100605.44
2022-08-07T19:52:35.761Z,100621.25
2022-08-07T20:02:52.242Z,100632.47
2022-08-07T20:13:00.008Z,100644.75
2022-08-07T20:23:41.892Z,100657.66
2022-08-07T20:33:38.686Z,100664.59
2022-08-07T20:43:47.704Z,100671.97
2022-08-07T20:54:03.730Z,100673.84
2022-08-07T21:04:21.893Z,100675.28
2022-08-07T21:14:32.749Z,100682.09
2022-08-07T21:24:48.028Z,100691.78
2022-08-07T21:34:59.126Z,100698.88
2022-08-07T21:45:08.502Z,100710.41
2022-08-07T21:55:38.491Z,100714.44
2022-08-07T22:05:49.763Z,100725.37
2022-08-07T22:16:39.162Z,100727.41
2022-08-07T22:26:29.758Z,100729.72
2022-08-07T22:36:38.505Z,100734.56
2022-08-07T22:47:06.085Z,100743.91
2022-08-07T22:57:34.077Z,100750.78
2022-08-07T23:07:49.589Z,100753.62
2022-08-07T23:18:10.422Z,100767.91
2022-08-07T23:28:28.225Z,100762.16
2022-08-07T23:38:54.707Z,100756.25
2022-08-07T23:49:16.946Z,100756.88
